createdAt,value
2023-02-09T00:00:02.988Z,165.6
2023-02-09T00:05:00.846Z,156.1
2023-02-09T00:10:00.829Z,168.8
2023-02-09T00:15:00.977Z,157.2
2023-02-09T00:20:00.809Z,174.2
2023-02-09T00:25:00.873Z,159.3
2023-02-09T00:30:00.842Z,157.5
2023-02-09T00:35:00.994Z,176.4
2023-02-09T00:40:00.840Z,196.8
2023-02-09T00:45:00.826Z,180.6
2023-02-09T00:50:00.833Z,159.3
2023-02-09T00:55:01.533Z,159.6
2023-02-09T01:00:00.978Z,170.6
2023-02-09T01:05:01.526Z,168.4
2023-02-09T01:10:00.898Z,162.1
2023-02-09T01:15:00.892Z,158.3
2023-02-09T01:20:00.899Z,157.5
2023-02-09T01:25:00.822Z,157.5
2023-02-09T01:30:00.851Z,157.5
2023-02-09T01:35:00.868Z,157.5
2023-02-09T01:40:00.842Z,157.1
2023-02-09T01:45:00.838Z,157.5
2023-02-09T01:50:00.810Z,153.2
2023-02-09T01:55:00.904Z,179.3
2023-02-09T02:00:00.872Z,158.3
2023-02-09T02:05:00.878Z,154.0
2023-02-09T02:10:00.873Z,151.3
2023-02-09T02:15:00.898Z,162.1
2023-02-09T02:20:00.820Z,157.5
2023-02-09T02:25:00.856Z,157.4
2023-02-09T02:30:01.061Z,157.5
2023-02-09T02:35:00.857Z,162.3
2023-02-09T02:40:00.851Z,165.4
2023-02-09T02:45:00.805Z,160.7
2023-02-09T02:50:00.840Z,159.9
2023-02-09T02:55:00.888Z,159.5
2023-02-09T03:00:00.935Z,159.9
2023-02-09T03:05:01.221Z,157.3
2023-02-09T03:10:03.804Z,168.3
2023-02-09T03:15:00.830Z,175.8
2023-02-09T03:20:00.896Z,176.3
2023-02-09T03:25:00.837Z,171.0
2023-02-09T03:30:00.853Z,165.3
2023-02-09T03:35:00.799Z,165.3
2023-02-09T03:40:00.836Z,170.4
2023-02-09T03:45:00.865Z,170.0
2023-02-09T03:50:00.820Z,168.0
2023-02-09T03:55:00.816Z,167.2
2023-02-09T04:00:00.851Z,170.9
2023-02-09T04:05:01.491Z,165.6
2023-02-09T04:10:00.837Z,166.6
2023-02-09T04:15:00.824Z,170.0
2023-02-09T04:20:00.812Z,164.5
2023-02-09T04:25:00.878Z,164.7
2023-02-09T04:30:00.882Z,170.6
2023-02-09T04:35:00.807Z,167.2
2023-02-09T04:40:00.897Z,171.5
2023-02-09T04:45:00.795Z,177.6
2023-02-09T04:50:00.835Z,170.0
2023-02-09T04:55:00.826Z,177.0
2023-02-09T05:00:00.879Z,179.2
2023-02-09T05:05:00.831Z,187.7
2023-02-09T05:10:00.880Z,187.1
2023-02-09T05:15:00.849Z,188.4
2023-02-09T05:20:00.880Z,183.4
2023-02-09T05:25:00.886Z,176.0
2023-02-09T05:30:00.792Z,183.8
2023-02-09T05:35:00.952Z,180.6
2023-02-09T05:40:00.871Z,179.2
2023-02-09T05:45:00.871Z,183.0
2023-02-09T05:50:00.830Z,187.1
2023-02-09T05:55:00.931Z,173.3
2023-02-09T06:00:00.833Z,187.6
2023-02-09T06:05:00.850Z,168.3
2023-02-09T06:10:00.892Z,186.4
2023-02-09T06:15:00.860Z,197.7
2023-02-09T06:20:00.897Z,181.4
2023-02-09T06:25:00.885Z,183.8
2023-02-09T06:30:00.889Z,176.1
2023-02-09T06:35:00.871Z,179.0
2023-02-09T06:40:00.868Z,170.0
2023-02-09T06:45:00.976Z,177.6
2023-02-09T06:50:01.641Z,194.9
2023-02-09T06:55:00.871Z,191.6
2023-02-09T07:00:00.860Z,176.8
2023-02-09T07:05:00.867Z,183.0
2023-02-09T07:10:00.785Z,177.8
2023-02-09T07:15:00.838Z,181.9
2023-02-09T07:20:00.833Z,179.0
2023-02-09T07:25:01.012Z,175.6
2023-02-09T07:30:01.741Z,184.6
2023-02-09T07:35:00.884Z,187.7
2023-02-09T07:40:00.870Z,189.8
2023-02-09T07:45:00.812Z,188.3
2023-02-09T07:50:00.850Z,173.2
2023-02-09T07:55:00.854Z,179.4
2023-02-09T08:00:00.905Z,180.5
2023-02-09T08:05:01.133Z,179.9
2023-02-09T08:10:00.929Z,173.9
2023-02-09T08:15:00.844Z,178.6
2023-02-09T08:20:00.897Z,176.7
2023-02-09T08:25:00.923Z,179.0
2023-02-09T08:30:00.848Z,181.9
2023-02-09T08:35:00.844Z,172.8
2023-02-09T08:40:00.801Z,174.9
2023-02-09T08:45:00.878Z,202.6
2023-02-09T08:50:00.876Z,175.4
2023-02-09T08:55:00.843Z,185.6
2023-02-09T09:00:00.809Z,182.4
2023-02-09T09:05:00.860Z,195.7
2023-02-09T09:10:00.910Z,185.5
2023-02-09T09:15:00.836Z,180.0
2023-02-09T09:20:00.836Z,182.3
2023-02-09T09:25:00.833Z,185.5
2023-02-09T09:30:00.839Z,173.2
2023-02-09T09:35:00.895Z,171.0
2023-02-09T09:40:00.887Z,169.8
2023-02-09T09:45:00.827Z,172.8
2023-02-09T09:50:00.886Z,186.5
2023-02-09T09:55:00.817Z,183.5
2023-02-09T10:00:00.864Z,179.2
2023-02-09T10:05:00.875Z,180.2
2023-02-09T10:10:00.838Z,192.8
2023-02-09T10:15:00.930Z,189.2
2023-02-09T10:20:00.861Z,172.0
2023-02-09T10:25:00.860Z,175.9
2023-02-09T10:30:00.893Z,182.3
2023-02-09T10:35:00.838Z,184.5
2023-02-09T10:40:00.855Z,176.6
2023-02-09T10:45:00.862Z,167.2
2023-02-09T10:50:00.872Z,174.1
2023-02-09T10:55:00.881Z,171.1
2023-02-09T11:00:00.888Z,187.7
2023-02-09T11:05:00.857Z,195.7
2023-02-09T11:10:00.882Z,185.8
2023-02-09T11:15:00.842Z,188.2
2023-02-09T11:20:00.881Z,191.5
2023-02-09T11:25:00.826Z,201.9
2023-02-09T11:30:00.824Z,195.0
2023-02-09T11:35:00.943Z,199.4
2023-02-09T11:40:00.941Z,205.5
2023-02-09T11:45:00.887Z,204.1
2023-02-09T11:50:00.857Z,194.0
2023-02-09T11:55:00.870Z,221.7
2023-02-09T12:00:00.832Z,200.9
2023-02-09T12:05:00.868Z,190.8
2023-02-09T12:10:00.854Z,195.0
2023-02-09T12:15:00.787Z,199.6
2023-02-09T12:20:00.885Z,190.2
2023-02-09T12:25:00.818Z,200.0
2023-02-09T12:30:00.848Z,190.5
2023-02-09T12:35:00.851Z,199.3
2023-02-09T12:40:00.846Z,199.0
2023-02-09T12:45:00.945Z,189.1
2023-02-09T12:50:00.820Z,188.0
2023-02-09T12:55:00.865Z,199.2
2023-02-09T13:00:00.943Z,198.6
2023-02-09T13:05:01.097Z,191.1
2023-02-09T13:10:00.895Z,198.9
2023-02-09T13:15:00.870Z,192.2
2023-02-09T13:20:00.884Z,172.5
2023-02-09T13:25:00.928Z,189.1
2023-02-09T13:30:00.870Z,193.8
2023-02-09T13:35:00.893Z,186.7
2023-02-09T13:40:01.043Z,200.5
2023-02-09T13:45:00.872Z,174.1
2023-02-09T13:50:00.823Z,192.9
2023-02-09T13:55:01.002Z,194.0
2023-02-09T14:00:00.847Z,199.8
2023-02-09T14:05:00.973Z,206.7
2023-02-09T14:10:00.794Z,196.1
2023-02-09T14:15:00.851Z,187.5
2023-02-09T14:20:01.118Z,205.1
2023-02-09T14:25:00.863Z,192.6
2023-02-09T14:30:00.851Z,190.3
2023-02-09T14:35:00.898Z,194.0
2023-02-09T14:40:00.849Z,197.2
2023-02-09T14:45:00.860Z,181.4
2023-02-09T14:50:00.920Z,183.2
2023-02-09T14:55:00.871Z,193.9
2023-02-09T15:00:00.846Z,192.9
2023-02-09T15:05:00.854Z,190.4
2023-02-09T15:10:00.885Z,202.2
2023-02-09T15:15:00.883Z,195.5
2023-02-09T15:20:00.856Z,193.5
2023-02-09T15:25:00.906Z,195.5
2023-02-09T15:30:05.196Z,173.3
2023-02-09T15:35:00.857Z,210.8
2023-02-09T15:40:00.832Z,223.2
2023-02-09T15:45:00.827Z,212.6
2023-02-09T15:50:00.846Z,199.8
2023-02-09T15:55:00.932Z,196.7
2023-02-09T16:00:00.935Z,175.0
2023-02-09T16:05:00.829Z,198.2
2023-02-09T16:10:00.958Z,193.4
2023-02-09T16:15:00.828Z,182.4
2023-02-09T16:20:00.830Z,209.1
2023-02-09T16:25:00.834Z,217.6
2023-02-09T16:30:01.209Z,191.2
2023-02-09T16:35:17.592Z,196.1
2023-02-09T16:40:01.151Z,188.8
2023-02-09T16:45:00.866Z,203.2
2023-02-09T16:50:00.988Z,196.6
2023-02-09T16:55:00.996Z,185.7
2023-02-09T17:00:00.961Z,181.4
2023-02-09T17:05:00.856Z,183.6
2023-02-09T17:10:01.068Z,194.7
2023-02-09T17:15:00.895Z,201.6
2023-02-09T17:20:00.895Z,199.1
2023-02-09T17:25:01.019Z,204.4
2023-02-09T17:30:00.867Z,189.9
2023-02-09T17:35:00.815Z,197.8
2023-02-09T17:40:00.808Z,197.2
2023-02-09T17:45:01.053Z,195.4
2023-02-09T17:50:00.971Z,193.0
2023-02-09T17:55:00.864Z,203.9
2023-02-09T18:00:00.847Z,198.0
2023-02-09T18:05:00.874Z,197.4
2023-02-09T18:10:00.932Z,198.9
2023-02-09T18:15:00.856Z,189.3
2023-02-09T18:20:00.893Z,201.5
2023-02-09T18:25:00.473Z,194.6
2023-02-09T18:30:00.476Z,195.0
2023-02-09T18:35:00.559Z,187.9
2023-02-09T18:40:00.525Z,200.3
2023-02-09T18:45:00.581Z,200.9
2023-02-09T18:50:00.598Z,196.3
2023-02-09T18:55:00.395Z,201.4
2023-02-09T19:00:00.508Z,202.8
2023-02-09T19:05:00.483Z,188.0
2023-02-09T19:10:00.493Z,194.6
2023-02-09T19:15:00.491Z,198.2
2023-02-09T19:20:00.494Z,186.3
2023-02-09T19:25:00.432Z,196.1
2023-02-09T19:30:00.603Z,196.8
2023-02-09T19:35:00.458Z,192.1
2023-02-09T19:40:00.537Z,205.2
2023-02-09T19:45:00.395Z,193.1
2023-02-09T19:50:00.708Z,190.9
2023-02-09T19:55:00.494Z,194.8
2023-02-09T20:00:00.519Z,192.0
2023-02-09T20:05:00.556Z,189.1
2023-02-09T20:10:00.524Z,188.6
2023-02-09T20:15:00.389Z,186.0
2023-02-09T20:20:00.491Z,184.0
2023-02-09T20:25:02.402Z,187.1
2023-02-09T20:30:00.489Z,197.6
2023-02-09T20:35:00.507Z,195.1
2023-02-09T20:40:00.422Z,197.0
2023-02-09T20:45:00.428Z,187.8
2023-02-09T20:50:01.040Z,186.1
2023-02-09T20:55:00.425Z,189.1
2023-02-09T21:00:00.709Z,191.6
2023-02-09T21:05:00.486Z,186.5
2023-02-09T21:10:00.499Z,180.8
2023-02-09T21:15:00.492Z,192.4
2023-02-09T21:20:00.526Z,194.8
2023-02-09T21:25:00.448Z,202.7
2023-02-09T21:30:00.481Z,206.6
2023-02-09T21:35:00.492Z,206.2
2023-02-09T21:40:00.499Z,200.7
2023-02-09T21:45:00.481Z,206.4
2023-02-09T21:50:00.512Z,196.3
2023-02-09T21:55:00.458Z,204.6
2023-02-09T22:00:00.487Z,200.6
2023-02-09T22:05:00.441Z,212.7
2023-02-09T22:10:00.513Z,203.2
2023-02-09T22:15:00.423Z,237.5
2023-02-09T22:20:00.490Z,245.6
2023-02-09T22:25:00.448Z,209.4
2023-02-09T22:30:00.584Z,214.0
2023-02-09T22:35:00.422Z,203.9
2023-02-09T22:40:00.479Z,226.5
2023-02-09T22:45:00.439Z,236.7
2023-02-09T22:50:00.423Z,214.0
2023-02-09T22:55:00.485Z,194.7
2023-02-09T23:00:00.525Z,205.1
2023-02-09T23:05:00.462Z,209.9
2023-02-09T23:10:00.501Z,206.0
2023-02-09T23:15:00.427Z,209.2
2023-02-09T23:20:00.468Z,213.3
2023-02-09T23:25:02.041Z,200.4
2023-02-09T23:30:00.468Z,199.4
2023-02-09T23:40:00.487Z,220.4
2023-02-09T23:45:00.474Z,203.5
2023-02-09T23:50:00.489Z,217.3
2023-02-09T23:55:00.457Z,210.6
